Time;durP1;ratioP1;P1;durP2;ratioP2;P2;SDS_P1;SDS_P2;PMS_P1;PMS_P2;Temp;Humidity;BMP_temperature;BMP_pressure;BME280_temperature;BME280_humidity;BME280_pressure;Samples;Min_cycle;Max_cycle;Signal;HPM_P1;HPM_P2
2022/03/02 00:00:23;;;;;;;;;;;-0.80;99.90;;;;;;5091570;28;19919;-80
2022/03/02 00:02:48;;;;;;;;;;;-0.10;99.90;;;;;;5084559;28;19908;-81
2022/03/02 00:05:14;;;;;;;;;;;-0.10;99.90;;;;;;5083203;28;19908;-80
2022/03/02 00:07:40;;;;;;;;;;;-0.10;99.90;;;;;;5081961;28;19912;-80
2022/03/02 00:10:06;;;;;;;;;;;0.00;99.90;;;;;;5081461;28;20081;-80
2022/03/02 00:12:32;;;;;;;;;;;0.00;99.90;;;;;;5081475;28;20157;-80
2022/03/02 00:14:58;;;;;;;;;;;-0.20;99.90;;;;;;5081616;28;19954;-80
2022/03/02 00:17:23;;;;;;;;;;;-0.20;99.90;;;;;;5081317;28;20010;-80
2022/03/02 00:19:49;;;;;;;;;;;-0.20;99.90;;;;;;5080909;28;19915;-80
2022/03/02 00:22:14;;;;;;;;;;;-0.20;99.90;;;;;;5081494;28;19940;-80
2022/03/02 00:24:40;;;;;;;;;;;-0.30;99.90;;;;;;5080821;28;20011;-79
2022/03/02 00:27:06;;;;;;;;;;;-0.30;99.90;;;;;;5080884;28;19916;-80
2022/03/02 00:29:31;;;;;;;;;;;-0.20;99.90;;;;;;5080630;28;19995;-80
2022/03/02 00:31:57;;;;;;;;;;;-0.20;99.90;;;;;;5079751;28;19955;-80
2022/03/02 00:34:22;;;;;;;;;;;-0.20;99.90;;;;;;5079590;28;19908;-80
2022/03/02 00:36:48;;;;;;;;;;;-0.10;99.90;;;;;;5080505;28;19957;-80
2022/03/02 00:39:14;;;;;;;;;;;-0.10;99.90;;;;;;5079291;28;20395;-80
2022/03/02 00:41:39;;;;;;;;;;;0.20;99.90;;;;;;5080690;28;19934;-80
2022/03/02 00:44:05;;;;;;;;;;;0.00;99.90;;;;;;5080609;28;19958;-80
2022/03/02 00:46:31;;;;;;;;;;;0.00;99.90;;;;;;5080513;28;19924;-80
2022/03/02 00:49:00;;;;;;;;;;;0.60;99.90;;;;;;5080514;28;19985;-80
2022/03/02 00:51:26;;;;;;;;;;;0.00;99.90;;;;;;5080092;28;20000;-80
2022/03/02 00:53:53;;;;;;;;;;;0.10;99.90;;;;;;5079103;28;20211;-80
2022/03/02 00:56:18;;;;;;;;;;;0.10;99.90;;;;;;5080108;28;19916;-79
2022/03/02 00:58:44;;;;;;;;;;;0.10;99.90;;;;;;5080685;28;20382;-80
2022/03/02 01:01:10;;;;;;;;;;;0.10;99.90;;;;;;5080926;28;19916;-80
2022/03/02 01:03:35;;;;;;;;;;;0.10;99.90;;;;;;5079196;28;19920;-80
2022/03/02 01:06:01;;;;;;;;;;;0.10;99.90;;;;;;5080363;28;20375;-80
2022/03/02 01:08:27;;;;;;;;;;;0.80;99.90;;;;;;5078940;28;20341;-80
2022/03/02 01:10:52;;;;;;;;;;;0.10;99.90;;;;;;5080621;28;19916;-80
2022/03/02 01:13:18;;;;;;;;;;;0.20;99.90;;;;;;5079553;28;20378;-79
2022/03/02 01:15:43;;;;;;;;;;;0.20;99.90;;;;;;5079100;28;19908;-79
2022/03/02 01:18:09;;;;;;;;;;;0.20;99.90;;;;;;5080471;28;19938;-80
2022/03/02 01:20:35;;;;;;;;;;;0.10;99.90;;;;;;5080621;28;19994;-80
2022/03/02 01:23:00;;;;;;;;;;;0.10;99.90;;;;;;5078872;28;19908;-80
2022/03/02 01:25:26;;;;;;;;;;;0.10;99.90;;;;;;5079724;28;19932;-80
2022/03/02 01:27:51;;;;;;;;;;;0.20;99.90;;;;;;5080479;28;20306;-80
2022/03/02 01:30:17;;;;;;;;;;;0.20;99.90;;;;;;5078353;28;19908;-80
2022/03/02 01:32:42;;;;;;;;;;;0.20;99.90;;;;;;5080498;28;20414;-80
2022/03/02 01:35:11;;;;;;;;;;;0.20;99.90;;;;;;5080781;28;20310;-80
2022/03/02 01:37:36;;;;;;;;;;;-0.50;99.90;;;;;;5080439;28;19919;-80
2022/03/02 01:40:02;;;;;;;;;;;0.20;99.90;;;;;;5079661;28;19908;-80
2022/03/02 01:42:28;;;;;;;;;;;0.20;99.90;;;;;;5082119;28;19908;-80
2022/03/02 01:44:54;;;;;;;;;;;0.20;99.90;;;;;;5088735;28;20184;-80
2022/03/02 01:47:19;;;;;;;;;;;0.10;99.90;;;;;;5084601;28;19955;-80
2022/03/02 01:49:45;;;;;;;;;;;0.20;99.90;;;;;;5080820;28;19908;-80
2022/03/02 01:52:10;;;;;;;;;;;0.80;99.90;;;;;;5079579;28;19912;-79
2022/03/02 01:54:36;;;;;;;;;;;0.10;99.90;;;;;;5078112;28;19908;-81
2022/03/02 01:57:01;;;;;;;;;;;0.20;99.90;;;;;;5079005;28;20097;-80
2022/03/02 01:59:27;;;;;;;;;;;0.00;99.90;;;;;;5077866;28;19909;-80
2022/03/02 02:01:53;;;;;;;;;;;0.10;99.90;;;;;;5077655;28;19908;-80
2022/03/02 02:04:18;;;;;;;;;;;0.00;99.90;;;;;;5079237;28;20546;-80
2022/03/02 02:06:44;;;;;;;;;;;0.00;99.90;;;;;;5079410;28;19927;-80
2022/03/02 02:09:09;;;;;;;;;;;0.00;99.90;;;;;;5079187;28;19908;-79
2022/03/02 02:11:35;;;;;;;;;;;0.00;99.90;;;;;;5079073;28;19908;-79
2022/03/02 02:14:01;;;;;;;;;;;0.40;99.90;;;;;;5077823;28;19955;-80
2022/03/02 02:16:27;;;;;;;;;;;0.00;99.90;;;;;;5077805;28;20338;-80
2022/03/02 02:18:55;;;;;;;;;;;0.00;99.90;;;;;;5079295;28;19948;-80
2022/03/02 02:21:20;;;;;;;;;;;0.00;99.90;;;;;;5078670;28;20157;-80
2022/03/02 02:23:46;;;;;;;;;;;0.00;99.90;;;;;;5078754;28;19908;-80
2022/03/02 02:26:12;;;;;;;;;;;-2.00;99.90;;;;;;5077673;28;20303;-79
2022/03/02 02:28:37;;;;;;;;;;;0.60;99.90;;;;;;5079304;28;20513;-79
2022/03/02 02:31:03;;;;;;;;;;;1.10;99.90;;;;;;5079501;28;20363;-80
2022/03/02 02:33:29;;;;;;;;;;;0.30;99.90;;;;;;5079227;28;19909;-80
2022/03/02 02:35:55;;;;;;;;;;;-0.10;99.90;;;;;;5079520;28;19942;-80
2022/03/02 02:38:21;;;;;;;;;;;-0.10;99.90;;;;;;5079750;28;20077;-80
2022/03/02 02:40:48;;;;;;;;;;;-0.10;99.90;;;;;;5078112;28;19908;-79
2022/03/02 02:43:14;;;;;;;;;;;-0.10;99.90;;;;;;5082643;28;19912;-79
2022/03/02 02:45:40;;;;;;;;;;;0.50;99.90;;;;;;5081661;28;19912;-80
2022/03/02 02:48:05;;;;;;;;;;;-0.10;99.90;;;;;;5083102;28;19973;-79
2022/03/02 02:50:32;;;;;;;;;;;-0.10;99.90;;;;;;5083347;28;19920;-80
2022/03/02 02:52:59;;;;;;;;;;;-0.10;99.90;;;;;;5083517;28;20465;-79
2022/03/02 02:55:26;;;;;;;;;;;-0.10;99.90;;;;;;5083729;28;19916;-79
2022/03/02 02:57:52;;;;;;;;;;;-0.10;99.90;;;;;;5083674;28;20387;-80
2022/03/02 03:00:18;;;;;;;;;;;0.60;99.90;;;;;;5083590;28;19916;-80
2022/03/02 03:02:46;;;;;;;;;;;-0.10;99.90;;;;;;5087903;28;19916;-80
2022/03/02 03:05:12;;;;;;;;;;;0.00;99.90;;;;;;5094102;28;20382;-80
2022/03/02 03:07:38;;;;;;;;;;;0.00;99.90;;;;;;5094096;28;19920;-80
2022/03/02 03:10:05;;;;;;;;;;;-0.10;99.90;;;;;;5094417;28;19908;-80
2022/03/02 03:12:30;;;;;;;;;;;0.00;99.90;;;;;;5089174;28;20141;-80
2022/03/02 03:14:57;;;;;;;;;;;0.00;99.90;;;;;;5083837;28;19915;-80
2022/03/02 03:17:23;;;;;;;;;;;0.00;99.90;;;;;;5082953;28;19908;-80
2022/03/02 03:19:48;;;;;;;;;;;0.00;99.90;;;;;;5083531;28;20382;-80
2022/03/02 03:22:14;;;;;;;;;;;0.00;99.90;;;;;;5082601;28;20014;-80
2022/03/02 03:24:40;;;;;;;;;;;-0.10;99.90;;;;;;5082172;28;20223;-80
2022/03/02 03:27:05;;;;;;;;;;;-0.10;99.90;;;;;;5082399;28;19965;-80
2022/03/02 03:29:31;;;;;;;;;;;0.20;99.90;;;;;;5082911;28;19907;-80
2022/03/02 03:31:56;;;;;;;;;;;0.00;99.90;;;;;;5082904;28;20560;-80
2022/03/02 03:34:22;;;;;;;;;;;0.00;99.90;;;;;;5082894;28;20201;-80
2022/03/02 03:36:47;;;;;;;;;;;0.00;99.90;;;;;;5082319;28;19908;-80
2022/03/02 03:39:13;;;;;;;;;;;0.00;99.90;;;;;;5082457;28;19908;-80
2022/03/02 03:41:38;;;;;;;;;;;0.50;99.90;;;;;;5082064;28;20246;-80
2022/03/02 03:44:04;;;;;;;;;;;1.00;99.90;;;;;;5082074;28;20192;-80
2022/03/02 03:46:30;;;;;;;;;;;0.00;99.70;;;;;;5082220;28;20264;-80
2022/03/02 03:48:56;;;;;;;;;;;0.00;99.20;;;;;;5082651;28;19926;-80
2022/03/02 03:51:21;;;;;;;;;;;0.10;99.00;;;;;;5082928;28;19916;-80
2022/03/02 03:53:47;;;;;;;;;;;0.80;99.30;;;;;;5080698;28;19908;-80
2022/03/02 03:56:12;;;;;;;;;;;0.00;98.90;;;;;;5083582;28;19927;-80
2022/03/02 03:58:38;;;;;;;;;;;1.20;98.80;;;;;;5090186;28;19916;-80
2022/03/02 04:01:03;;;;;;;;;;;0.00;98.50;;;;;;5083697;28;19912;-79
2022/03/02 04:03:29;;;;;;;;;;;0.00;98.40;;;;;;5081405;28;19915;-80
2022/03/02 04:05:54;;;;;;;;;;;0.00;98.40;;;;;;5081831;28;19969;-80
2022/03/02 04:08:22;;;;;;;;;;;0.20;98.40;;;;;;5080541;28;20300;-80
2022/03/02 04:10:49;;;;;;;;;;;0.00;98.30;;;;;;5081756;28;19908;-80
2022/03/02 04:13:15;;;;;;;;;;;0.00;98.50;;;;;;5080432;28;19908;-79
2022/03/02 04:15:40;;;;;;;;;;;0.00;98.60;;;;;;5081299;28;20395;-80
2022/03/02 04:18:06;;;;;;;;;;;0.00;98.70;;;;;;5081329;28;19915;-79
2022/03/02 04:20:32;;;;;;;;;;;0.00;98.40;;;;;;5081485;28;20352;-80
2022/03/02 04:22:58;;;;;;;;;;;0.00;98.20;;;;;;5080200;28;19908;-80
2022/03/02 04:25:23;;;;;;;;;;;0.00;98.20;;;;;;5079284;28;19936;-80
2022/03/02 04:27:49;;;;;;;;;;;0.00;98.10;;;;;;5079875;28;20330;-80
2022/03/02 04:30:14;;;;;;;;;;;-0.10;97.60;;;;;;5081838;28;20330;-79
2022/03/02 04:32:40;;;;;;;;;;;0.00;97.80;;;;;;5084186;28;19916;-80
2022/03/02 04:35:07;;;;;;;;;;;-0.20;98.10;;;;;;5088119;28;20127;-80
2022/03/02 04:37:33;;;;;;;;;;;-0.20;98.10;;;;;;5087698;28;19908;-80
2022/03/02 04:39:58;;;;;;;;;;;-0.20;98.20;;;;;;5088235;28;20447;-80
2022/03/02 04:42:24;;;;;;;;;;;0.40;98.40;;;;;;5089567;28;19954;-80
2022/03/02 04:44:49;;;;;;;;;;;-0.10;98.10;;;;;;5088035;28;19973;-81
2022/03/02 04:47:15;;;;;;;;;;;1.20;98.10;;;;;;5089267;28;19923;-80
2022/03/02 04:49:40;;;;;;;;;;;-0.10;97.70;;;;;;5089151;28;19908;-80
2022/03/02 04:52:06;;;;;;;;;;;-0.10;97.90;;;;;;5089196;28;19908;-80
2022/03/02 04:57:16;;;;;;;;;;;0.00;97.50;;;;;;5081850;28;19930;-80
2022/03/02 04:59:42;;;;;;;;;;;0.10;97.50;;;;;;5081305;28;19912;-80
2022/03/02 05:02:07;;;;;;;;;;;0.00;97.60;;;;;;5080977;28;19961;-80
2022/03/02 05:04:33;;;;;;;;;;;0.00;97.30;;;;;;5080988;28;19944;-80
2022/03/02 05:06:58;;;;;;;;;;;0.30;97.50;;;;;;5079999;28;19939;-80
2022/03/02 05:09:24;;;;;;;;;;;0.00;97.30;;;;;;5080863;28;20302;-80
2022/03/02 05:11:49;;;;;;;;;;;-0.10;97.50;;;;;;5079124;28;19915;-81
2022/03/02 05:14:15;;;;;;;;;;;-0.20;97.30;;;;;;5080714;28;19909;-80
2022/03/02 05:16:40;;;;;;;;;;;-0.30;97.30;;;;;;5080342;28;20473;-80
2022/03/02 05:19:06;;;;;;;;;;;-0.30;97.40;;;;;;5080359;28;20101;-80
2022/03/02 05:21:31;;;;;;;;;;;-0.30;97.60;;;;;;5080297;28;19909;-80
2022/03/02 05:23:57;;;;;;;;;;;-0.30;97.70;;;;;;5080040;28;20328;-81
2022/03/02 05:26:23;;;;;;;;;;;-0.40;97.90;;;;;;5079354;28;19928;-80
2022/03/02 05:28:49;;;;;;;;;;;-0.30;97.90;;;;;;5079749;28;19912;-79
2022/03/02 05:31:15;;;;;;;;;;;-0.40;97.80;;;;;;5079354;28;19943;-80
2022/03/02 05:33:40;;;;;;;;;;;-0.10;97.90;;;;;;5078288;28;20128;-80
2022/03/02 05:36:06;;;;;;;;;;;-0.40;97.90;;;;;;5079767;28;20465;-80
2022/03/02 05:38:31;;;;;;;;;;;-0.30;97.80;;;;;;5079335;28;19919;-80
2022/03/02 05:40:57;;;;;;;;;;;-0.30;97.80;;;;;;5079476;28;20186;-80
2022/03/02 05:43:23;;;;;;;;;;;-0.20;97.70;;;;;;5079419;28;20367;-80
2022/03/02 05:45:48;;;;;;;;;;;-0.20;97.60;;;;;;5079240;28;19959;-80
2022/03/02 05:48:14;;;;;;;;;;;-0.20;97.60;;;;;;5078742;28;20406;-80
2022/03/02 05:50:39;;;;;;;;;;;0.90;97.80;;;;;;5079472;28;20393;-80
2022/03/02 05:53:05;;;;;;;;;;;-0.10;97.50;;;;;;5079614;28;19908;-80
2022/03/02 05:55:30;;;;;;;;;;;-0.20;97.70;;;;;;5079657;28;20608;-80
2022/03/02 05:57:56;;;;;;;;;;;-0.40;97.70;;;;;;5078259;28;20206;-80
2022/03/02 06:00:22;;;;;;;;;;;-0.40;97.70;;;;;;5079281;28;20176;-81
2022/03/02 06:02:47;;;;;;;;;;;0.00;97.90;;;;;;5080557;28;20387;-80
2022/03/02 06:05:14;;;;;;;;;;;0.10;97.90;;;;;;5080095;28;19942;-80
2022/03/02 06:07:39;;;;;;;;;;;-0.40;97.90;;;;;;5078779;28;19916;-80
2022/03/02 06:10:05;;;;;;;;;;;-0.40;98.10;;;;;;5080648;28;19908;-80
2022/03/02 06:12:31;;;;;;;;;;;-0.30;98.10;;;;;;5084220;28;19944;-81
2022/03/02 06:14:57;;;;;;;;;;;-0.30;97.90;;;;;;5088694;28;19979;-80
2022/03/02 06:17:23;;;;;;;;;;;-0.20;97.90;;;;;;5083964;28;19962;-80
2022/03/02 06:19:49;;;;;;;;;;;-0.10;97.60;;;;;;5089036;28;20387;-80
2022/03/02 06:22:16;;;;;;;;;;;0.00;97.50;;;;;;5088631;28;19912;-81
2022/03/02 06:24:42;;;;;;;;;;;0.00;97.50;;;;;;5087933;28;19912;-80
2022/03/02 06:27:09;;;;;;;;;;;0.10;97.50;;;;;;5078829;28;21634;-80
2022/03/02 06:29:35;;;;;;;;;;;0.10;97.10;;;;;;5078987;28;19912;-80
2022/03/02 06:32:00;;;;;;;;;;;0.10;97.30;;;;;;5079022;28;19912;-80
2022/03/02 06:34:26;;;;;;;;;;;0.20;97.10;;;;;;5079231;28;19908;-80
2022/03/02 06:36:51;;;;;;;;;;;0.30;97.40;;;;;;5078978;28;19985;-80
2022/03/02 06:39:21;;;;;;;;;;;0.60;97.40;;;;;;5078774;28;20127;-80
2022/03/02 06:41:46;;;;;;;;;;;0.50;97.30;;;;;;5077426;28;19908;-80
2022/03/02 06:44:18;;;;;;;;;;;3.10;97.80;;;;;;5078870;28;20106;-79
2022/03/02 06:46:55;;;;;;;;;;;0.50;97.00;;;;;;5078705;28;19920;-80
2022/03/02 06:49:45;;;;;;;;;;;0.60;97.00;;;;;;5078915;28;19985;-80
2022/03/02 06:52:12;;;;;;;;;;;0.60;96.70;;;;;;5018280;28;20420;-80
2022/03/02 06:54:42;;;;;;;;;;;0.70;96.70;;;;;;5035339;28;19923;-81
2022/03/02 06:57:09;;;;;;;;;;;0.70;96.60;;;;;;5035413;28;19916;-80
2022/03/02 06:59:39;;;;;;;;;;;1.00;96.50;;;;;;5035571;28;20081;-80
2022/03/02 07:02:05;;;;;;;;;;;0.80;96.20;;;;;;5035354;28;19912;-80
2022/03/02 07:04:37;;;;;;;;;;;0.80;96.00;;;;;;5035365;28;20145;-80
2022/03/02 07:07:03;;;;;;;;;;;2.30;96.00;;;;;;5035454;28;20292;-80
2022/03/02 07:09:30;;;;;;;;;;;0.70;95.70;;;;;;5018772;28;20247;-80
2022/03/02 07:11:56;;;;;;;;;;;0.80;95.90;;;;;;5035553;28;19952;-80
2022/03/02 07:14:22;;;;;;;;;;;0.80;95.90;;;;;;5018699;28;20259;-80
2022/03/02 07:16:48;;;;;;;;;;;0.90;96.10;;;;;;5035302;28;20367;-79
2022/03/02 07:19:13;;;;;;;;;;;0.90;96.20;;;;;;5018630;28;19909;-79
2022/03/02 07:21:39;;;;;;;;;;;0.80;96.40;;;;;;5035143;28;19919;-80
2022/03/02 07:24:06;;;;;;;;;;;0.60;97.00;;;;;;5018472;28;19949;-79
2022/03/02 07:26:33;;;;;;;;;;;0.60;97.00;;;;;;5001291;28;19995;-80
2022/03/02 07:28:59;;;;;;;;;;;0.40;97.20;;;;;;5053727;28;20007;-80
2022/03/02 07:31:26;;;;;;;;;;;0.50;97.20;;;;;;5080797;28;20187;-80
2022/03/02 07:33:52;;;;;;;;;;;1.10;97.10;;;;;;5080493;28;19919;-80
2022/03/02 07:36:19;;;;;;;;;;;0.60;97.00;;;;;;5082610;28;19998;-80
2022/03/02 07:38:44;;;;;;;;;;;0.70;97.00;;;;;;5080895;28;20005;-80
2022/03/02 07:41:10;;;;;;;;;;;0.70;97.00;;;;;;5081338;28;20203;-80
2022/03/02 07:43:37;;;;;;;;;;;0.80;96.50;;;;;;5083640;28;19931;-79
2022/03/02 07:46:04;;;;;;;;;;;0.80;96.50;;;;;;5081946;28;19922;-79
2022/03/02 07:48:29;;;;;;;;;;;0.90;96.40;;;;;;5083575;28;19944;-80
2022/03/02 07:50:56;;;;;;;;;;;0.90;96.30;;;;;;5082134;28;20327;-80
2022/03/02 07:53:25;;;;;;;;;;;1.00;96.10;;;;;;5083282;28;20013;-80
2022/03/02 07:55:52;;;;;;;;;;;1.00;95.90;;;;;;5083309;28;19939;-80
2022/03/02 07:58:18;;;;;;;;;;;1.00;95.60;;;;;;5082195;28;19938;-80
2022/03/02 08:00:47;;;;;;;;;;;1.10;95.80;;;;;;5082790;28;19908;-80
2022/03/02 08:03:13;;;;;;;;;;;0.90;96.00;;;;;;5083047;28;19909;-81
2022/03/02 08:05:39;;;;;;;;;;;0.80;96.20;;;;;;5083296;28;20274;-80
2022/03/02 08:08:05;;;;;;;;;;;0.80;95.90;;;;;;5081776;28;19918;-80
2022/03/02 08:10:31;;;;;;;;;;;0.80;95.90;;;;;;5083412;28;19908;-80
2022/03/02 08:12:57;;;;;;;;;;;0.80;96.20;;;;;;5089862;28;19912;-80
2022/03/02 08:15:24;;;;;;;;;;;0.80;96.30;;;;;;5084426;28;19908;-80
2022/03/02 08:17:50;;;;;;;;;;;0.80;96.20;;;;;;5082676;28;20081;-80
2022/03/02 08:20:15;;;;;;;;;;;0.90;96.30;;;;;;5081538;28;20579;-80
2022/03/02 08:22:48;;;;;;;;;;;1.00;96.00;;;;;;5081816;28;19946;-80
2022/03/02 08:25:14;;;;;;;;;;;1.00;95.40;;;;;;5081566;28;19928;-80
2022/03/02 08:27:41;;;;;;;;;;;1.00;94.80;;;;;;5080891;28;20160;-80
2022/03/02 08:30:07;;;;;;;;;;;1.20;94.50;;;;;;5080380;28;20204;-80
2022/03/02 08:32:35;;;;;;;;;;;1.20;94.20;;;;;;5080663;28;20310;-79
2022/03/02 08:35:00;;;;;;;;;;;1.20;94.00;;;;;;5082446;28;19908;-79
2022/03/02 08:37:26;;;;;;;;;;;1.40;93.60;;;;;;5082576;28;20325;-80
2022/03/02 08:39:52;;;;;;;;;;;1.50;92.90;;;;;;5081880;28;19912;-80
2022/03/02 08:42:17;;;;;;;;;;;1.70;92.90;;;;;;5082463;28;20123;-80
2022/03/02 08:44:46;;;;;;;;;;;1.90;92.30;;;;;;5083859;28;19908;-80
2022/03/02 08:47:12;;;;;;;;;;;2.10;92.10;;;;;;5081410;28;19920;-79
2022/03/02 08:49:38;;;;;;;;;;;2.20;91.70;;;;;;5083113;28;20081;-79
2022/03/02 08:52:04;;;;;;;;;;;2.00;92.20;;;;;;5082538;28;20420;-80
2022/03/02 08:54:31;;;;;;;;;;;2.00;92.10;;;;;;5084058;28;20003;-80
2022/03/02 08:56:57;;;;;;;;;;;2.10;92.10;;;;;;5083371;28;19908;-79
2022/03/02 08:59:24;;;;;;;;;;;2.20;92.40;;;;;;5084029;28;19915;-79
2022/03/02 09:01:51;;;;;;;;;;;2.40;92.00;;;;;;5082644;28;20359;-79
2022/03/02 09:04:17;;;;;;;;;;;2.90;91.70;;;;;;5082401;28;20597;-79
2022/03/02 09:06:44;;;;;;;;;;;2.90;91.60;;;;;;5082419;28;19965;-80
2022/03/02 09:09:09;;;;;;;;;;;3.10;90.80;;;;;;5088169;28;19944;-80
2022/03/02 09:11:35;;;;;;;;;;;3.40;90.40;;;;;;5089587;28;20414;-79
2022/03/02 09:14:01;;;;;;;;;;;3.80;88.00;;;;;;5088031;28;19908;-80
2022/03/02 09:16:27;;;;;;;;;;;4.00;88.60;;;;;;5086113;28;19908;-79
2022/03/02 09:18:53;;;;;;;;;;;4.00;89.10;;;;;;5081598;28;19909;-79
2022/03/02 09:21:19;;;;;;;;;;;4.10;86.70;;;;;;5080014;28;20385;-79
2022/03/02 09:23:46;;;;;;;;;;;3.90;85.60;;;;;;5081049;28;19908;-80
2022/03/02 09:26:13;;;;;;;;;;;3.60;86.10;;;;;;5078746;28;19928;-79
2022/03/02 09:28:40;;;;;;;;;;;3.40;86.30;;;;;;5079289;28;19908;-79
2022/03/02 09:31:07;;;;;;;;;;;3.50;86.90;;;;;;5080396;28;19956;-79
2022/03/02 09:33:36;;;;;;;;;;;3.60;86.50;;;;;;5080294;28;19938;-79
2022/03/02 09:36:04;;;;;;;;;;;3.80;84.40;;;;;;5080844;28;19915;-80
2022/03/02 09:38:32;;;;;;;;;;;4.00;83.90;;;;;;5080228;28;19974;-79
2022/03/02 09:41:05;;;;;;;;;;;4.30;84.40;;;;;;5080518;28;20402;-80
2022/03/02 09:43:31;;;;;;;;;;;4.50;83.20;;;;;;5080157;28;19914;-80
2022/03/02 09:45:57;;;;;;;;;;;4.70;81.90;;;;;;5080175;28;19920;-80
2022/03/02 09:48:34;;;;;;;;;;;4.60;81.00;;;;;;5080792;28;19969;-79
2022/03/02 09:51:01;;;;;;;;;;;4.70;81.50;;;;;;5079799;28;19907;-80
2022/03/02 09:53:28;;;;;;;;;;;4.70;79.60;;;;;;5079168;28;19957;-80
2022/03/02 09:56:03;;;;;;;;;;;4.80;81.50;;;;;;5079769;28;19942;-80
2022/03/02 09:58:29;;;;;;;;;;;4.90;79.10;;;;;;5080689;28;19912;-80
2022/03/02 10:00:56;;;;;;;;;;;4.90;78.30;;;;;;5080642;28;20022;-80
2022/03/02 10:03:23;;;;;;;;;;;5.00;77.90;;;;;;5080025;28;19958;-80
2022/03/02 10:05:50;;;;;;;;;;;5.20;80.00;;;;;;5081051;28;19916;-79
2022/03/02 10:08:18;;;;;;;;;;;5.40;76.70;;;;;;5079362;28;19912;-80
2022/03/02 10:10:46;;;;;;;;;;;5.40;76.30;;;;;;5081126;28;19909;-80
2022/03/02 10:13:12;;;;;;;;;;;5.60;75.80;;;;;;5081114;28;19912;-80
2022/03/02 10:15:39;;;;;;;;;;;5.60;76.20;;;;;;5080653;28;20333;-79
2022/03/02 10:18:06;;;;;;;;;;;5.20;75.90;;;;;;5081123;28;19955;-79
2022/03/02 10:20:33;;;;;;;;;;;5.20;77.40;;;;;;5082510;28;20319;-80
2022/03/02 10:23:02;;;;;;;;;;;5.30;76.30;;;;;;5082557;28;20647;-80
2022/03/02 10:25:38;;;;;;;;;;;5.30;78.40;;;;;;5087467;28;20023;-80
2022/03/02 10:28:07;;;;;;;;;;;5.80;74.60;;;;;;5087278;28;19912;-79
2022/03/02 10:30:35;;;;;;;;;;;6.00;72.80;;;;;;5082687;28;19908;-79
2022/03/02 10:33:21;;;;;;;;;;;6.00;72.40;;;;;;5084633;28;19908;-79
2022/03/02 10:36:02;;;;;;;;;;;6.30;71.10;;;;;;5083612;28;19919;-80
2022/03/02 10:38:33;;;;;;;;;;;6.50;69.80;;;;;;5083592;28;20370;-80
2022/03/02 10:40:59;;;;;;;;;;;6.50;69.60;;;;;;5078664;28;20419;-79
2022/03/02 10:43:31;;;;;;;;;;;6.70;68.20;;;;;;5081709;28;19908;-80
2022/03/02 10:45:58;;;;;;;;;;;6.90;63.70;;;;;;5081397;28;19919;-79
2022/03/02 10:48:56;;;;;;;;;;;7.30;68.50;;;;;;5081794;28;20006;-80
2022/03/02 10:51:23;;;;;;;;;;;7.60;62.00;;;;;;5038516;28;19909;-79
2022/03/02 10:53:50;;;;;;;;;;;7.60;63.20;;;;;;5038020;28;19909;-80
2022/03/02 10:56:18;;;;;;;;;;;7.60;59.50;;;;;;5020246;28;19917;-80
2022/03/02 10:58:47;;;;;;;;;;;7.30;60.90;;;;;;5021360;28;19953;-80
2022/03/02 11:01:13;;;;;;;;;;;7.50;59.90;;;;;;5037856;28;19935;-79
2022/03/02 11:03:38;;;;;;;;;;;7.90;63.10;;;;;;5040829;28;19908;-80
2022/03/02 11:06:06;;;;;;;;;;;8.00;59.20;;;;;;5045025;28;20195;-79
2022/03/02 11:08:33;;;;;;;;;;;7.70;58.50;;;;;;5045937;28;19917;-80
2022/03/02 11:10:59;;;;;;;;;;;7.80;58.80;;;;;;5046189;28;20045;-80
2022/03/02 11:13:26;;;;;;;;;;;8.10;59.80;;;;;;5045272;28;19967;-80
2022/03/02 11:15:56;;;;;;;;;;;8.40;58.90;;;;;;5046381;28;19939;-79
2022/03/02 11:18:35;;;;;;;;;;;8.30;55.50;;;;;;5044274;28;19913;-80
2022/03/02 11:21:10;;;;;;;;;;;8.50;54.70;;;;;;5028580;28;20728;-79
2022/03/02 11:23:42;;;;;;;;;;;7.70;56.50;;;;;;5045133;28;20141;-80
2022/03/02 11:26:11;;;;;;;;;;;8.00;57.90;;;;;;5021466;28;19994;-80
2022/03/02 11:28:37;;;;;;;;;;;8.20;58.20;;;;;;5049201;28;20203;-80
2022/03/02 11:31:07;;;;;;;;;;;8.50;54.50;;;;;;5051963;28;19913;-80
2022/03/02 11:33:33;;;;;;;;;;;8.50;54.80;;;;;;5051005;28;20387;-80
2022/03/02 11:36:09;;;;;;;;;;;8.70;55.40;;;;;;5051905;28;19935;-80
2022/03/02 11:38:38;;;;;;;;;;;8.80;53.10;;;;;;5051690;28;19909;-80
2022/03/02 11:41:04;;;;;;;;;;;8.80;52.20;;;;;;5053424;28;19966;-80
2022/03/02 11:43:31;;;;;;;;;;;8.40;51.80;;;;;;5053659;28;19983;-80
2022/03/02 11:46:02;;;;;;;;;;;8.50;54.00;;;;;;5045143;28;19921;-79
2022/03/02 11:48:37;;;;;;;;;;;8.40;52.40;;;;;;5045076;28;20007;-79
2022/03/02 11:51:12;;;;;;;;;;;8.10;52.10;;;;;;5045628;28;19977;-80
2022/03/02 11:53:37;;;;;;;;;;;7.70;52.40;;;;;;5043011;28;19913;-79
2022/03/02 11:56:04;;;;;;;;;;;7.90;53.10;;;;;;5042153;28;19917;-80
2022/03/02 11:58:49;;;;;;;;;;;8.10;52.40;;;;;;5044266;28;20204;-80
2022/03/02 12:01:14;;;;;;;;;;;8.20;52.10;;;;;;5048624;28;19909;-80
2022/03/02 12:03:53;;;;;;;;;;;8.30;54.80;;;;;;5050420;28;20554;-80
2022/03/02 12:06:20;;;;;;;;;;;8.60;51.50;;;;;;5051551;28;20292;-80
2022/03/02 12:08:50;;;;;;;;;;;6.80;49.40;;;;;;5050890;28;19908;-80
2022/03/02 12:11:21;;;;;;;;;;;8.40;52.40;;;;;;5050512;28;19908;-79
2022/03/02 12:14:20;;;;;;;;;;;8.40;53.30;;;;;;5056045;28;20439;-80
2022/03/02 12:16:51;;;;;;;;;;;8.30;52.40;;;;;;5034935;28;19963;-80
2022/03/02 12:19:22;;;;;;;;;;;8.20;51.40;;;;;;5053119;28;20275;-80
2022/03/02 12:21:48;;;;;;;;;;;8.30;52.80;;;;;;5049977;28;19909;-80
2022/03/02 12:24:26;;;;;;;;;;;7.70;51.70;;;;;;5044532;28;19909;-80
2022/03/02 12:26:58;;;;;;;;;;;7.90;53.10;;;;;;5043597;28;19929;-79
2022/03/02 12:29:25;;;;;;;;;;;8.20;51.40;;;;;;5041748;28;20004;-80
2022/03/02 12:32:02;;;;;;;;;;;8.40;52.20;;;;;;5022238;28;20042;-80
2022/03/02 12:34:27;;;;;;;;;;;8.70;50.00;;;;;;5022825;28;19920;-79
2022/03/02 12:36:53;;;;;;;;;;;9.10;50.60;;;;;;5027373;28;19909;-80
2022/03/02 12:39:18;;;;;;;;;;;9.50;51.90;;;;;;5047946;28;20004;-80
2022/03/02 12:41:44;;;;;;;;;;;9.90;48.80;;;;;;5039947;28;20296;-79
2022/03/02 12:44:10;;;;;;;;;;;10.10;48.20;;;;;;5040173;28;20327;-80
2022/03/02 12:46:36;;;;;;;;;;;9.90;45.80;;;;;;5022369;28;20371;-80
2022/03/02 12:49:02;;;;;;;;;;;10.20;45.20;;;;;;5039678;28;20568;-80
2022/03/02 12:51:28;;;;;;;;;;;10.50;45.30;;;;;;5040095;28;19909;-80
2022/03/02 12:53:54;;;;;;;;;;;10.60;45.30;;;;;;5042443;28;19909;-79
2022/03/02 12:56:20;;;;;;;;;;;10.70;46.00;;;;;;5041690;28;20007;-80
2022/03/02 12:58:45;;;;;;;;;;;10.60;45.00;;;;;;5042266;28;20111;-80
2022/03/02 13:01:11;;;;;;;;;;;10.60;44.90;;;;;;5042735;28;19909;-80
2022/03/02 13:03:42;;;;;;;;;;;10.30;44.80;;;;;;5042651;28;20126;-80
2022/03/02 13:06:11;;;;;;;;;;;10.20;45.50;;;;;;5042530;28;19912;-79
2022/03/02 13:08:39;;;;;;;;;;;9.80;46.10;;;;;;5043375;28;20035;-80
2022/03/02 13:11:20;;;;;;;;;;;9.70;46.50;;;;;;5044366;28;19955;-80
2022/03/02 13:13:46;;;;;;;;;;;9.60;47.20;;;;;;5044343;28;20186;-80
2022/03/02 13:16:19;;;;;;;;;;;9.40;47.20;;;;;;5043797;28;20259;-80
2022/03/02 13:18:44;;;;;;;;;;;9.30;47.00;;;;;;5043317;28;20105;-80
2022/03/02 13:21:14;;;;;;;;;;;9.20;48.50;;;;;;5043623;28;19909;-81
2022/03/02 13:23:40;;;;;;;;;;;9.20;47.50;;;;;;5043039;28;20367;-81
2022/03/02 13:26:05;;;;;;;;;;;9.10;48.10;;;;;;5070261;28;20024;-80
2022/03/02 13:28:32;;;;;;;;;;;9.00;48.10;;;;;;5082775;28;20295;-80
2022/03/02 13:31:08;;;;;;;;;;;8.80;48.40;;;;;;5083573;28;19919;-80
2022/03/02 13:33:55;;;;;;;;;;;8.90;47.30;;;;;;5083183;28;19912;-80
2022/03/02 13:36:36;;;;;;;;;;;8.70;48.10;;;;;;5084120;28;20286;-80
2022/03/02 13:39:05;;;;;;;;;;;9.00;47.20;;;;;;5084695;28;19908;-80
2022/03/02 13:41:43;;;;;;;;;;;8.90;46.20;;;;;;5082952;28;19908;-80
2022/03/02 13:44:21;;;;;;;;;;;8.90;46.40;;;;;;5084311;28;19947;-80
2022/03/02 13:47:17;;;;;;;;;;;9.10;46.10;;;;;;5084344;28;19917;-80
2022/03/02 13:49:54;;;;;;;;;;;9.50;45.50;;;;;;5023088;28;19912;-80
2022/03/02 13:52:28;;;;;;;;;;;9.50;45.60;;;;;;5039595;28;19932;-80
2022/03/02 13:54:58;;;;;;;;;;;9.90;45.50;;;;;;5040181;28;20316;-79
2022/03/02 13:57:30;;;;;;;;;;;12.40;45.70;;;;;;5041156;28;19917;-79
2022/03/02 14:00:14;;;;;;;;;;;10.80;44.80;;;;;;5039880;28;20125;-79
2022/03/02 14:02:41;;;;;;;;;;;11.10;44.60;;;;;;5037655;28;20161;-80
2022/03/02 14:05:07;;;;;;;;;;;11.50;43.90;;;;;;5019188;28;19992;-80
2022/03/02 14:07:35;;;;;;;;;;;12.20;42.50;;;;;;5035310;28;20248;-80
2022/03/02 14:10:02;;;;;;;;;;;12.70;40.00;;;;;;5035118;28;19920;-81
2022/03/02 14:12:28;;;;;;;;;;;13.30;38.60;;;;;;5036809;28;20411;-80
2022/03/02 14:14:53;;;;;;;;;;;11.20;36.80;;;;;;5035161;28;19920;-81
2022/03/02 14:17:19;;;;;;;;;;;13.60;37.00;;;;;;5034703;28;19994;-77
2022/03/02 14:19:49;;;;;;;;;;;13.70;37.40;;;;;;5018041;28;19909;-79
2022/03/02 14:22:21;;;;;;;;;;;13.80;36.90;;;;;;5034828;28;19909;-79
2022/03/02 14:24:47;;;;;;;;;;;14.10;35.80;;;;;;5030441;28;20422;-79
2022/03/02 14:27:14;;;;;;;;;;;13.80;34.20;;;;;;5093387;28;19916;-80
2022/03/02 14:29:40;;;;;;;;;;;13.20;34.20;;;;;;5098790;28;20161;-79